OOCL Oakland — 3EKJ6 — position and weather

sailwx.info

Track history (hours):
 
Tides and Currents Weather Stations Pressure Air Temp Water Temp Dewpoint Dewpoint Depression Visibility Wind Speed Wind Dir Waves Ship Positions

OOCL Oakland

Last reported at 2017-Aug-12 05:56 UTC. Time now 2017-Aug-22 20:40 UTC.
Position S 35°17' E 137°56'.
Warning: this ship's position is 10 days out of date.

Length 280 m; draft 11.6 m.

Type: Ship. MMSI: 372703235.

Date/timePositionNaut miles runAvg speedWind from/ knotsBaromVisibWave heightAir tempDewpointWater temp
2017-Aug-12 05:56S 35°17' E 137°56'615.2
2017-Aug-12 05:31S 35°13' E 138°02'914.8
2017-Aug-12 04:54S 35°05' E 138°08'614.7
2017-Aug-12 04:30S 35°00' E 138°12'11 0.5
2017-Aug-11 04:31S 34°50' E 138°18'0 0.1
2017-Aug-11 04:28S 34°50' E 138°18'0 0.1
2017-Aug-11 03:58S 34°50' E 138°18'60 4.0
2017-Aug-10 12:57S 35°50' E 138°13'348 8.5
2017-Aug-08 19:44S 38°07' E 144°55'516.8
2017-Aug-08 19:28S 38°02' E 144°55'715.3
2017-Aug-08 19:00S 37°55' E 144°56'510.0
2017-Aug-08 18:30S 37°50' E 144°54'2 0.7
2017-Aug-08 15:54S 37°49' E 144°55'0 0.0
2017-Aug-08 14:54S 37°49' E 144°55'0 0.0
2017-Aug-07 04:26S 37°49' E 144°55'8 6.2
2017-Aug-07 03:07S 37°57' E 144°56'1 6.3
2017-Aug-07 03:00S 37°58' E 144°55'3 6.5
2017-Aug-07 02:30S 38°01' E 144°56'4 8.7
2017-Aug-07 02:00S 38°05' E 144°55'17810.3
2017-Aug-06 08:44S 38°25' E 148°41'314.3
2017-Aug-06 08:30S 38°23' E 148°45'714.6
2017-Aug-06 08:00S 38°19' E 148°52'714.6
2017-Aug-06 07:30S 38°15' E 148°59'815.3
2017-Aug-06 06:57S 38°10' E 149°08'715.8
2017-Aug-06 06:31S 38°06' E 149°15'815.9
2017-Aug-06 06:00S 38°02' E 149°24'1115.7
2017-Aug-06 05:16S 37°55' E 149°36'  
2017-Aug-03 00:21S 38°22' E 149°04'719.5
2017-Aug-02 23:58S 38°26' E 148°56'919.1
2017-Aug-02 23:30S 38°31' E 148°47'  
Track history (hours):
 
Tides and Currents Weather Stations Pressure Air Temp Water Temp Dewpoint Dewpoint Depression Visibility Wind Speed Wind Dir Waves Ship Positions

OOCL Oakland

Last reported at 2017-Aug-12 05:56 UTC. Time now 2017-Aug-22 20:40 UTC.
Position S 35°17' E 137°56'.
Warning: this ship's position is 10 days out of date.

Length 280 m; draft 11.6 m.

Type: Ship. MMSI: 372703235.

Date/timePositionNaut miles runAvg speedWind from/ knotsBaromVisibWave heightAir tempDewpointWater temp
2017-Aug-12 05:56S 35°17' E 137°56'615.2
2017-Aug-12 05:31S 35°13' E 138°02'914.8
2017-Aug-12 04:54S 35°05' E 138°08'614.7
2017-Aug-12 04:30S 35°00' E 138°12'11 0.5
2017-Aug-11 04:31S 34°50' E 138°18'0 0.1
2017-Aug-11 04:28S 34°50' E 138°18'0 0.1
2017-Aug-11 03:58S 34°50' E 138°18'60 4.0
2017-Aug-10 12:57S 35°50' E 138°13'348 8.5
2017-Aug-08 19:44S 38°07' E 144°55'516.8
2017-Aug-08 19:28S 38°02' E 144°55'715.3
2017-Aug-08 19:00S 37°55' E 144°56'510.0
2017-Aug-08 18:30S 37°50' E 144°54'2 0.7
2017-Aug-08 15:54S 37°49' E 144°55'0 0.0
2017-Aug-08 14:54S 37°49' E 144°55'0 0.0
2017-Aug-07 04:26S 37°49' E 144°55'8 6.2
2017-Aug-07 03:07S 37°57' E 144°56'1 6.3
2017-Aug-07 03:00S 37°58' E 144°55'3 6.5
2017-Aug-07 02:30S 38°01' E 144°56'4 8.7
2017-Aug-07 02:00S 38°05' E 144°55'17810.3
2017-Aug-06 08:44S 38°25' E 148°41'314.3
2017-Aug-06 08:30S 38°23' E 148°45'714.6
2017-Aug-06 08:00S 38°19' E 148°52'714.6
2017-Aug-06 07:30S 38°15' E 148°59'815.3
2017-Aug-06 06:57S 38°10' E 149°08'715.8
2017-Aug-06 06:31S 38°06' E 149°15'815.9
2017-Aug-06 06:00S 38°02' E 149°24'1115.7
2017-Aug-06 05:16S 37°55' E 149°36'  
2017-Aug-03 00:21S 38°22' E 149°04'719.5
2017-Aug-02 23:58S 38°26' E 148°56'919.1
2017-Aug-02 23:30S 38°31' E 148°47'  

Dump ship's entire track history